sensor_id;sensor_type;location;lat;lon;timestamp;pressure;altitude;pressure_sealevel;temperature;humidity
11108;BME280;5607;48.302;14.294;2023-03-26T00:00:01;98037.94;;;6.99;100.00
11108;BME280;5607;48.302;14.294;2023-03-26T00:02:47;98049.06;;;7.11;100.00
11108;BME280;5607;48.302;14.294;2023-03-26T00:05:34;98039.72;;;7.29;100.00
11108;BME280;5607;48.302;14.294;2023-03-26T00:08:20;98036.81;;;7.22;100.00
11108;BME280;5607;48.302;14.294;2023-03-26T00:11:10;98030.66;;;7.23;100.00
11108;BME280;5607;48.302;14.294;2023-03-26T00:13:58;98036.78;;;7.53;100.00
11108;BME280;5607;48.302;14.294;2023-03-26T00:16:44;98025.28;;;7.55;100.00
11108;BME280;5607;48.302;14.294;2023-03-26T00:19:32;98033.66;;;7.78;100.00
11108;BME280;5607;48.302;14.294;2023-03-26T00:22:19;98042.84;;;7.82;100.00
11108;BME280;5607;48.302;14.294;2023-03-26T00:25:06;98037.78;;;7.91;100.00
11108;BME280;5607;48.302;14.294;2023-03-26T00:27:53;98033.41;;;7.91;100.00
11108;BME280;5607;48.302;14.294;2023-03-26T00:30:39;98026.13;;;7.95;100.00
11108;BME280;5607;48.302;14.294;2023-03-26T00:33:27;98018.88;;;7.89;100.00
11108;BME280;5607;48.302;14.294;2023-03-26T00:36:15;98020.97;;;7.85;100.00
11108;BME280;5607;48.302;14.294;2023-03-26T00:39:03;98024.78;;;8.00;100.00
11108;BME280;5607;48.302;14.294;2023-03-26T00:41:50;98029.31;;;7.98;100.00
11108;BME280;5607;48.302;14.294;2023-03-26T00:44:39;98026.84;;;8.06;100.00
11108;BME280;5607;48.302;14.294;2023-03-26T00:47:27;98022.59;;;8.15;100.00
11108;BME280;5607;48.302;14.294;2023-03-26T00:50:14;98024.94;;;8.28;100.00
11108;BME280;5607;48.302;14.294;2023-03-26T00:53:01;98009.84;;;8.31;100.00
11108;BME280;5607;48.302;14.294;2023-03-26T00:55:48;98014.25;;;8.41;100.00
11108;BME280;5607;48.302;14.294;2023-03-26T00:58:35;98006.72;;;8.47;100.00
11108;BME280;5607;48.302;14.294;2023-03-26T01:01:24;98000.00;;;8.54;100.00
11108;BME280;5607;48.302;14.294;2023-03-26T01:04:27;97992.53;;;8.69;100.00
11108;BME280;5607;48.302;14.294;2023-03-26T01:07:17;97988.53;;;8.84;100.00
11108;BME280;5607;48.302;14.294;2023-03-26T01:10:07;97990.31;;;8.84;100.00
11108;BME280;5607;48.302;14.294;2023-03-26T01:12:54;97986.19;;;8.91;100.00
11108;BME280;5607;48.302;14.294;2023-03-26T01:15:41;97990.00;;;8.97;100.00
11108;BME280;5607;48.302;14.294;2023-03-26T01:18:31;97988.59;;;9.02;100.00
11108;BME280;5607;48.302;14.294;2023-03-26T01:21:22;97990.91;;;9.05;100.00
11108;BME280;5607;48.302;14.294;2023-03-26T01:24:15;97990.78;;;9.07;100.00
11108;BME280;5607;48.302;14.294;2023-03-26T01:30:06;97984.47;;;9.09;100.00
11108;BME280;5607;48.302;14.294;2023-03-26T01:33:14;97983.50;;;9.10;100.00
11108;BME280;5607;48.302;14.294;2023-03-26T01:36:16;97980.47;;;9.15;100.00
11108;BME280;5607;48.302;14.294;2023-03-26T01:42:40;97970.28;;;9.22;100.00
11108;BME280;5607;48.302;14.294;2023-03-26T01:45:31;97968.13;;;9.35;100.00
11108;BME280;5607;48.302;14.294;2023-03-26T01:48:19;97961.88;;;9.28;100.00
11108;BME280;5607;48.302;14.294;2023-03-26T01:51:07;97974.25;;;9.26;100.00
11108;BME280;5607;48.302;14.294;2023-03-26T01:53:54;97967.00;;;9.20;100.00
11108;BME280;5607;48.302;14.294;2023-03-26T02:03:13;97974.97;;;9.36;100.00
11108;BME280;5607;48.302;14.294;2023-03-26T02:06:09;97960.47;;;9.33;100.00
11108;BME280;5607;48.302;14.294;2023-03-26T02:09:09;97955.78;;;9.37;100.00
11108;BME280;5607;48.302;14.294;2023-03-26T02:11:58;97950.09;;;9.24;100.00
11108;BME280;5607;48.302;14.294;2023-03-26T02:14:46;97947.34;;;9.25;100.00
11108;BME280;5607;48.302;14.294;2023-03-26T02:17:32;97944.47;;;9.28;100.00
11108;BME280;5607;48.302;14.294;2023-03-26T02:20:20;97955.41;;;9.32;100.00
11108;BME280;5607;48.302;14.294;2023-03-26T02:23:08;97957.63;;;9.27;100.00
11108;BME280;5607;48.302;14.294;2023-03-26T02:25:55;97943.25;;;9.23;100.00
11108;BME280;5607;48.302;14.294;2023-03-26T02:28:41;97955.31;;;9.24;100.00
11108;BME280;5607;48.302;14.294;2023-03-26T02:31:28;97953.91;;;9.29;100.00
11108;BME280;5607;48.302;14.294;2023-03-26T02:34:15;97956.75;;;9.36;100.00
11108;BME280;5607;48.302;14.294;2023-03-26T02:37:02;97960.38;;;9.25;100.00
11108;BME280;5607;48.302;14.294;2023-03-26T02:39:48;97948.47;;;9.23;100.00
11108;BME280;5607;48.302;14.294;2023-03-26T02:42:36;97946.97;;;9.20;100.00
11108;BME280;5607;48.302;14.294;2023-03-26T02:45:23;97949.13;;;9.25;100.00
11108;BME280;5607;48.302;14.294;2023-03-26T02:48:09;97950.91;;;9.24;100.00
11108;BME280;5607;48.302;14.294;2023-03-26T02:50:56;97957.06;;;9.33;100.00
11108;BME280;5607;48.302;14.294;2023-03-26T02:53:43;97948.53;;;9.31;100.00
11108;BME280;5607;48.302;14.294;2023-03-26T02:56:29;97952.22;;;9.38;100.00
11108;BME280;5607;48.302;14.294;2023-03-26T02:59:16;97956.38;;;9.31;100.00
11108;BME280;5607;48.302;14.294;2023-03-26T03:02:03;97953.56;;;9.42;100.00
11108;BME280;5607;48.302;14.294;2023-03-26T03:04:49;97955.94;;;9.35;100.00
11108;BME280;5607;48.302;14.294;2023-03-26T03:07:37;97962.84;;;9.27;100.00
11108;BME280;5607;48.302;14.294;2023-03-26T03:10:26;97965.56;;;9.25;100.00
11108;BME280;5607;48.302;14.294;2023-03-26T03:13:13;97967.31;;;9.34;100.00
11108;BME280;5607;48.302;14.294;2023-03-26T03:16:00;97953.00;;;9.21;100.00
11108;BME280;5607;48.302;14.294;2023-03-26T03:18:47;97960.25;;;9.27;100.00
11108;BME280;5607;48.302;14.294;2023-03-26T03:21:40;97959.28;;;9.28;100.00
11108;BME280;5607;48.302;14.294;2023-03-26T03:24:27;97952.31;;;9.18;100.00
11108;BME280;5607;48.302;14.294;2023-03-26T03:27:14;97941.25;;;9.16;100.00
11108;BME280;5607;48.302;14.294;2023-03-26T03:30:00;97939.25;;;9.28;100.00
11108;BME280;5607;48.302;14.294;2023-03-26T03:32:48;97943.56;;;9.20;100.00
11108;BME280;5607;48.302;14.294;2023-03-26T03:35:34;97945.53;;;9.08;100.00
11108;BME280;5607;48.302;14.294;2023-03-26T03:38:21;97947.34;;;9.07;100.00
11108;BME280;5607;48.302;14.294;2023-03-26T03:41:07;97953.47;;;9.06;100.00
11108;BME280;5607;48.302;14.294;2023-03-26T03:43:54;97955.06;;;9.17;100.00
11108;BME280;5607;48.302;14.294;2023-03-26T03:46:41;97941.78;;;8.93;100.00
11108;BME280;5607;48.302;14.294;2023-03-26T03:49:28;97949.06;;;8.89;100.00
11108;BME280;5607;48.302;14.294;2023-03-26T03:52:15;97951.38;;;8.92;100.00
11108;BME280;5607;48.302;14.294;2023-03-26T03:55:03;97940.09;;;9.01;100.00
11108;BME280;5607;48.302;14.294;2023-03-26T03:57:49;97938.44;;;9.00;100.00
11108;BME280;5607;48.302;14.294;2023-03-26T04:00:37;97937.50;;;9.19;100.00
11108;BME280;5607;48.302;14.294;2023-03-26T04:03:27;97931.72;;;9.07;100.00
11108;BME280;5607;48.302;14.294;2023-03-26T04:06:14;97930.16;;;9.14;100.00
11108;BME280;5607;48.302;14.294;2023-03-26T04:09:03;97929.75;;;9.09;100.00
11108;BME280;5607;48.302;14.294;2023-03-26T04:11:50;97932.91;;;9.13;100.00
11108;BME280;5607;48.302;14.294;2023-03-26T04:14:37;97922.03;;;9.17;100.00
11108;BME280;5607;48.302;14.294;2023-03-26T04:17:24;97923.31;;;9.13;100.00
11108;BME280;5607;48.302;14.294;2023-03-26T04:20:11;97908.38;;;9.06;100.00
11108;BME280;5607;48.302;14.294;2023-03-26T04:23:00;97917.19;;;9.05;100.00
11108;BME280;5607;48.302;14.294;2023-03-26T04:25:50;97915.78;;;9.10;100.00
11108;BME280;5607;48.302;14.294;2023-03-26T04:28:43;97893.13;;;8.93;100.00
11108;BME280;5607;48.302;14.294;2023-03-26T04:31:33;97905.56;;;8.99;100.00
11108;BME280;5607;48.302;14.294;2023-03-26T04:34:22;97920.91;;;9.02;100.00
11108;BME280;5607;48.302;14.294;2023-03-26T04:37:29;97911.22;;;8.95;100.00
11108;BME280;5607;48.302;14.294;2023-03-26T04:40:25;97881.56;;;8.78;100.00
11108;BME280;5607;48.302;14.294;2023-03-26T04:43:15;97898.31;;;8.93;100.00
11108;BME280;5607;48.302;14.294;2023-03-26T04:46:03;97892.72;;;8.88;100.00
11108;BME280;5607;48.302;14.294;2023-03-26T04:48:50;97898.31;;;8.93;100.00
11108;BME280;5607;48.302;14.294;2023-03-26T04:51:38;97899.53;;;8.99;100.00
11108;BME280;5607;48.302;14.294;2023-03-26T04:54:27;97902.56;;;8.94;100.00
11108;BME280;5607;48.302;14.294;2023-03-26T04:57:36;97907.41;;;8.89;100.00
11108;BME280;5607;48.302;14.294;2023-03-26T05:00:25;97895.47;;;8.86;100.00
11108;BME280;5607;48.302;14.294;2023-03-26T05:03:12;97907.69;;;8.86;100.00
11108;BME280;5607;48.302;14.294;2023-03-26T05:05:59;97899.59;;;8.89;100.00
11108;BME280;5607;48.302;14.294;2023-03-26T05:08:47;97900.25;;;8.91;100.00
11108;BME280;5607;48.302;14.294;2023-03-26T05:11:34;97897.66;;;8.91;100.00
11108;BME280;5607;48.302;14.294;2023-03-26T05:14:20;97899.13;;;8.94;100.00
11108;BME280;5607;48.302;14.294;2023-03-26T05:17:12;97890.44;;;8.85;100.00
11108;BME280;5607;48.302;14.294;2023-03-26T05:20:00;97883.16;;;8.88;100.00
11108;BME280;5607;48.302;14.294;2023-03-26T05:22:48;97885.00;;;8.78;100.00
11108;BME280;5607;48.302;14.294;2023-03-26T05:25:35;97889.63;;;8.84;100.00
11108;BME280;5607;48.302;14.294;2023-03-26T05:28:21;97891.00;;;8.79;100.00
11108;BME280;5607;48.302;14.294;2023-03-26T05:31:09;97893.78;;;8.68;100.00
11108;BME280;5607;48.302;14.294;2023-03-26T05:33:57;97897.34;;;8.76;100.00
11108;BME280;5607;48.302;14.294;2023-03-26T05:36:45;97898.34;;;8.56;100.00
11108;BME280;5607;48.302;14.294;2023-03-26T05:39:34;97906.75;;;8.50;100.00
11108;BME280;5607;48.302;14.294;2023-03-26T05:42:20;97906.88;;;8.58;100.00
11108;BME280;5607;48.302;14.294;2023-03-26T05:45:10;97903.53;;;8.66;100.00
11108;BME280;5607;48.302;14.294;2023-03-26T05:47:57;97906.38;;;8.72;100.00
11108;BME280;5607;48.302;14.294;2023-03-26T05:50:43;97907.88;;;8.75;100.00
11108;BME280;5607;48.302;14.294;2023-03-26T05:53:31;97907.28;;;8.81;100.00
11108;BME280;5607;48.302;14.294;2023-03-26T05:56:18;97896.59;;;8.84;100.00
11108;BME280;5607;48.302;14.294;2023-03-26T05:59:04;97908.41;;;8.78;100.00
11108;BME280;5607;48.302;14.294;2023-03-26T06:01:52;97897.09;;;8.70;100.00
11108;BME280;5607;48.302;14.294;2023-03-26T06:04:39;97904.22;;;8.68;100.00
11108;BME280;5607;48.302;14.294;2023-03-26T06:07:27;97899.44;;;8.63;100.00
11108;BME280;5607;48.302;14.294;2023-03-26T06:10:14;97905.16;;;8.76;100.00
11108;BME280;5607;48.302;14.294;2023-03-26T06:13:01;97900.25;;;8.91;100.00
11108;BME280;5607;48.302;14.294;2023-03-26T06:15:47;97897.81;;;8.89;100.00
11108;BME280;5607;48.302;14.294;2023-03-26T06:18:34;97897.75;;;8.72;100.00
11108;BME280;5607;48.302;14.294;2023-03-26T06:21:21;97897.91;;;8.70;100.00
11108;BME280;5607;48.302;14.294;2023-03-26T06:24:08;97888.56;;;8.77;100.00
11108;BME280;5607;48.302;14.294;2023-03-26T06:26:54;97898.41;;;8.83;100.00
11108;BME280;5607;48.302;14.294;2023-03-26T06:29:41;97890.63;;;8.74;100.00
11108;BME280;5607;48.302;14.294;2023-03-26T06:32:27;97880.44;;;8.80;100.00
11108;BME280;5607;48.302;14.294;2023-03-26T06:35:14;97887.53;;;8.88;100.00
11108;BME280;5607;48.302;14.294;2023-03-26T06:38:01;97885.63;;;8.90;100.00
11108;BME280;5607;48.302;14.294;2023-03-26T06:40:48;97896.84;;;8.90;100.00
11108;BME280;5607;48.302;14.294;2023-03-26T06:43:34;97889.81;;;9.01;100.00
11108;BME280;5607;48.302;14.294;2023-03-26T06:46:21;97888.44;;;8.97;100.00
11108;BME280;5607;48.302;14.294;2023-03-26T06:49:08;97897.34;;;8.94;100.00
11108;BME280;5607;48.302;14.294;2023-03-26T06:51:55;97883.19;;;8.79;100.00
11108;BME280;5607;48.302;14.294;2023-03-26T06:54:42;97884.00;;;8.79;100.00
11108;BME280;5607;48.302;14.294;2023-03-26T06:57:29;97884.53;;;9.10;100.00
11108;BME280;5607;48.302;14.294;2023-03-26T07:00:16;97874.34;;;9.17;100.00
11108;BME280;5607;48.302;14.294;2023-03-26T07:03:04;97867.63;;;8.97;100.00
11108;BME280;5607;48.302;14.294;2023-03-26T07:05:50;97866.00;;;9.13;100.00
11108;BME280;5607;48.302;14.294;2023-03-26T07:08:37;97861.75;;;9.30;100.00
11108;BME280;5607;48.302;14.294;2023-03-26T07:11:24;97859.31;;;9.47;100.00
11108;BME280;5607;48.302;14.294;2023-03-26T07:14:12;97860.16;;;9.73;100.00
11108;BME280;5607;48.302;14.294;2023-03-26T07:16:58;97854.31;;;9.53;100.00
11108;BME280;5607;48.302;14.294;2023-03-26T07:19:45;97848.31;;;9.79;100.00
11108;BME280;5607;48.302;14.294;2023-03-26T07:22:33;97855.28;;;9.96;100.00
11108;BME280;5607;48.302;14.294;2023-03-26T07:25:20;97859.38;;;10.24;100.00
11108;BME280;5607;48.302;14.294;2023-03-26T07:28:33;97849.47;;;10.28;100.00
11108;BME280;5607;48.302;14.294;2023-03-26T07:31:32;97853.00;;;10.45;99.67
11108;BME280;5607;48.302;14.294;2023-03-26T07:47:44;97804.06;;;11.22;92.38
11108;BME280;5607;48.302;14.294;2023-03-26T07:50:32;97794.59;;;11.13;92.46
11108;BME280;5607;48.302;14.294;2023-03-26T07:53:19;97791.19;;;11.45;92.21
11108;BME280;5607;48.302;14.294;2023-03-26T07:56:21;97792.94;;;11.60;90.67
11108;BME280;5607;48.302;14.294;2023-03-26T08:17:43;97758.16;;;11.68;86.74
11108;BME280;5607;48.302;14.294;2023-03-26T08:20:39;97742.66;;;11.34;88.16
11108;BME280;5607;48.302;14.294;2023-03-26T08:23:36;97743.09;;;11.70;86.87
11108;BME280;5607;48.302;14.294;2023-03-26T08:32:35;97739.88;;;12.16;82.25
11108;BME280;5607;48.302;14.294;2023-03-26T08:35:23;97736.22;;;11.94;82.78
11108;BME280;5607;48.302;14.294;2023-03-26T08:38:12;97725.38;;;12.05;82.43
11108;BME280;5607;48.302;14.294;2023-03-26T08:41:28;97731.09;;;12.39;80.99
11108;BME280;5607;48.302;14.294;2023-03-26T08:54:24;97706.66;;;12.78;77.98
11108;BME280;5607;48.302;14.294;2023-03-26T09:06:17;97680.75;;;12.83;78.16
11108;BME280;5607;48.302;14.294;2023-03-26T09:09:18;97676.56;;;13.35;74.41
11108;BME280;5607;48.302;14.294;2023-03-26T09:15:40;97656.63;;;13.11;71.77
11108;BME280;5607;48.302;14.294;2023-03-26T09:37:58;97597.84;;;14.30;64.71
11108;BME280;5607;48.302;14.294;2023-03-26T09:40:52;97598.25;;;14.48;63.50
11108;BME280;5607;48.302;14.294;2023-03-26T10:02:39;97551.16;;;15.03;59.58
11108;BME280;5607;48.302;14.294;2023-03-26T10:21:03;97504.81;;;13.96;59.42
11108;BME280;5607;48.302;14.294;2023-03-26T10:24:01;97496.06;;;14.11;58.84
11108;BME280;5607;48.302;14.294;2023-03-26T10:27:04;97493.16;;;14.27;59.28
11108;BME280;5607;48.302;14.294;2023-03-26T10:30:02;97478.66;;;14.52;58.85
11108;BME280;5607;48.302;14.294;2023-03-26T10:33:06;97474.31;;;14.66;58.14
11108;BME280;5607;48.302;14.294;2023-03-26T10:36:35;97465.72;;;14.79;58.02
11108;BME280;5607;48.302;14.294;2023-03-26T10:43:26;97466.53;;;14.51;57.41
11108;BME280;5607;48.302;14.294;2023-03-26T10:52:13;97449.06;;;14.44;56.38
11108;BME280;5607;48.302;14.294;2023-03-26T10:58:16;97452.66;;;14.36;56.18
11108;BME280;5607;48.302;14.294;2023-03-26T11:01:30;97435.75;;;14.45;55.27
11108;BME280;5607;48.302;14.294;2023-03-26T11:08:05;97407.94;;;14.51;56.18
11108;BME280;5607;48.302;14.294;2023-03-26T11:11:14;97414.19;;;14.85;55.01
11108;BME280;5607;48.302;14.294;2023-03-26T11:20:38;97421.28;;;14.28;54.71
11108;BME280;5607;48.302;14.294;2023-03-26T11:23:33;97415.44;;;14.33;55.40
11108;BME280;5607;48.302;14.294;2023-03-26T11:27:01;97408.41;;;14.61;55.61
11108;BME280;5607;48.302;14.294;2023-03-26T11:30:20;97408.19;;;14.97;55.01
11108;BME280;5607;48.302;14.294;2023-03-26T11:33:14;97423.22;;;15.17;54.52
11108;BME280;5607;48.302;14.294;2023-03-26T11:36:09;97437.22;;;15.24;53.81
11108;BME280;5607;48.302;14.294;2023-03-26T11:38:58;97434.38;;;14.00;56.40
11108;BME280;5607;48.302;14.294;2023-03-26T11:41:48;97439.75;;;14.13;55.75
11108;BME280;5607;48.302;14.294;2023-03-26T11:44:41;97434.94;;;13.53;56.68
11108;BME280;5607;48.302;14.294;2023-03-26T11:47:58;97428.47;;;13.70;56.77
11108;BME280;5607;48.302;14.294;2023-03-26T11:50:50;97428.34;;;13.57;57.30
11108;BME280;5607;48.302;14.294;2023-03-26T11:53:38;97413.91;;;13.67;57.06
11108;BME280;5607;48.302;14.294;2023-03-26T11:56:32;97435.00;;;13.59;56.76
11108;BME280;5607;48.302;14.294;2023-03-26T11:59:25;97445.47;;;13.74;57.16
11108;BME280;5607;48.302;14.294;2023-03-26T12:08:30;97441.81;;;13.54;60.82
11108;BME280;5607;48.302;14.294;2023-03-26T12:11:23;97434.31;;;13.00;62.88
11108;BME280;5607;48.302;14.294;2023-03-26T12:14:17;97421.91;;;13.08;63.58
11108;BME280;5607;48.302;14.294;2023-03-26T12:17:12;97415.09;;;13.65;62.26
11108;BME280;5607;48.302;14.294;2023-03-26T12:20:00;97404.16;;;13.83;61.93
11108;BME280;5607;48.302;14.294;2023-03-26T12:22:47;97394.34;;;13.70;61.76
11108;BME280;5607;48.302;14.294;2023-03-26T12:25:36;97399.16;;;13.24;62.15
11108;BME280;5607;48.302;14.294;2023-03-26T12:28:30;97386.31;;;13.50;62.40
11108;BME280;5607;48.302;14.294;2023-03-26T12:31:17;97394.00;;;13.73;61.30
11108;BME280;5607;48.302;14.294;2023-03-26T12:34:16;97381.16;;;13.85;61.56
11108;BME280;5607;48.302;14.294;2023-03-26T12:37:05;97367.88;;;13.43;62.25
11108;BME280;5607;48.302;14.294;2023-03-26T12:40:22;97380.69;;;13.17;63.60
11108;BME280;5607;48.302;14.294;2023-03-26T12:49:12;97349.19;;;13.74;61.84
11108;BME280;5607;48.302;14.294;2023-03-26T13:10:38;97363.50;;;13.51;64.97
11108;BME280;5607;48.302;14.294;2023-03-26T13:17:01;97348.69;;;13.86;63.63
11108;BME280;5607;48.302;14.294;2023-03-26T13:29:13;97347.88;;;13.85;63.88
11108;BME280;5607;48.302;14.294;2023-03-26T13:35:11;97339.25;;;13.42;65.96
11108;BME280;5607;48.302;14.294;2023-03-26T13:47:15;97331.88;;;13.31;71.91
11108;BME280;5607;48.302;14.294;2023-03-26T13:50:14;97322.72;;;12.90;74.28
11108;BME280;5607;48.302;14.294;2023-03-26T13:55:58;97325.78;;;12.58;82.09
11108;BME280;5607;48.302;14.294;2023-03-26T13:58:49;97324.28;;;12.49;85.85
11108;BME280;5607;48.302;14.294;2023-03-26T14:01:42;97313.63;;;12.21;87.79
11108;BME280;5607;48.302;14.294;2023-03-26T14:04:39;97316.84;;;12.23;92.28
11108;BME280;5607;48.302;14.294;2023-03-26T14:07:34;97307.34;;;11.92;95.46
11108;BME280;5607;48.302;14.294;2023-03-26T14:10:36;97316.47;;;11.81;100.00
11108;BME280;5607;48.302;14.294;2023-03-26T14:13:31;97321.00;;;12.02;100.00
11108;BME280;5607;48.302;14.294;2023-03-26T14:16:26;97323.97;;;12.29;100.00
11108;BME280;5607;48.302;14.294;2023-03-26T14:22:18;97332.84;;;12.13;100.00
11108;BME280;5607;48.302;14.294;2023-03-26T14:33:58;97296.78;;;13.32;100.00
11108;BME280;5607;48.302;14.294;2023-03-26T14:40:27;97301.81;;;13.33;97.00
11108;BME280;5607;48.302;14.294;2023-03-26T14:53:24;97263.97;;;12.78;98.07
11108;BME280;5607;48.302;14.294;2023-03-26T14:59:41;97258.47;;;12.73;100.00
11108;BME280;5607;48.302;14.294;2023-03-26T15:02:55;97254.69;;;12.97;100.00
11108;BME280;5607;48.302;14.294;2023-03-26T15:06:02;97245.53;;;12.50;100.00
11108;BME280;5607;48.302;14.294;2023-03-26T15:09:44;97247.13;;;12.30;100.00
11108;BME280;5607;48.302;14.294;2023-03-26T15:18:41;97234.28;;;12.71;98.53
11108;BME280;5607;48.302;14.294;2023-03-26T15:38:15;97237.63;;;12.29;96.49
11108;BME280;5607;48.302;14.294;2023-03-26T15:41:16;97236.84;;;11.99;97.51
11108;BME280;5607;48.302;14.294;2023-03-26T15:59:53;97223.72;;;11.69;98.51
11108;BME280;5607;48.302;14.294;2023-03-26T16:09:03;97223.81;;;11.76;99.47
11108;BME280;5607;48.302;14.294;2023-03-26T16:15:40;97206.16;;;11.78;100.00
11108;BME280;5607;48.302;14.294;2023-03-26T16:24:21;97211.56;;;11.62;100.00
11108;BME280;5607;48.302;14.294;2023-03-26T16:33:21;97216.88;;;11.68;100.00
11108;BME280;5607;48.302;14.294;2023-03-26T16:36:34;97228.81;;;11.33;100.00
11108;BME280;5607;48.302;14.294;2023-03-26T16:45:32;97226.00;;;11.20;100.00
11108;BME280;5607;48.302;14.294;2023-03-26T16:48:38;97221.09;;;11.17;100.00
11108;BME280;5607;48.302;14.294;2023-03-26T16:57:52;97218.53;;;11.31;100.00
11108;BME280;5607;48.302;14.294;2023-03-26T17:00:53;97201.56;;;11.13;100.00
11108;BME280;5607;48.302;14.294;2023-03-26T17:04:12;97219.34;;;11.32;100.00
11108;BME280;5607;48.302;14.294;2023-03-26T17:07:07;97224.28;;;11.27;100.00
11108;BME280;5607;48.302;14.294;2023-03-26T17:10:06;97235.47;;;11.36;100.00
11108;BME280;5607;48.302;14.294;2023-03-26T17:13:07;97232.88;;;11.36;98.34
11108;BME280;5607;48.302;14.294;2023-03-26T17:31:51;97219.63;;;10.99;97.71
11108;BME280;5607;48.302;14.294;2023-03-26T17:37:41;97202.91;;;11.09;97.98
11108;BME280;5607;48.302;14.294;2023-03-26T17:46:43;97206.91;;;10.96;99.35
11108;BME280;5607;48.302;14.294;2023-03-26T17:49:32;97219.84;;;11.13;100.00
11108;BME280;5607;48.302;14.294;2023-03-26T17:55:30;97226.13;;;11.03;99.75
11108;BME280;5607;48.302;14.294;2023-03-26T17:58:41;97225.00;;;10.98;99.36
11108;BME280;5607;48.302;14.294;2023-03-26T18:01:38;97223.75;;;10.94;100.00
11108;BME280;5607;48.302;14.294;2023-03-26T18:04:44;97215.38;;;10.98;100.00
11108;BME280;5607;48.302;14.294;2023-03-26T18:11:04;97204.53;;;10.87;100.00
11108;BME280;5607;48.302;14.294;2023-03-26T18:17:15;97177.50;;;10.79;100.00
11108;BME280;5607;48.302;14.294;2023-03-26T18:20:03;97175.44;;;10.75;100.00
11108;BME280;5607;48.302;14.294;2023-03-26T18:22:55;97162.31;;;10.60;100.00
11108;BME280;5607;48.302;14.294;2023-03-26T18:25:48;97160.97;;;10.64;100.00
11108;BME280;5607;48.302;14.294;2023-03-26T18:29:08;97165.84;;;10.44;100.00
11108;BME280;5607;48.302;14.294;2023-03-26T18:34:53;97175.94;;;10.47;100.00
11108;BME280;5607;48.302;14.294;2023-03-26T18:37:42;97179.00;;;10.20;100.00
11108;BME280;5607;48.302;14.294;2023-03-26T18:40:34;97197.88;;;10.30;100.00
11108;BME280;5607;48.302;14.294;2023-03-26T18:43:25;97200.84;;;10.27;100.00
11108;BME280;5607;48.302;14.294;2023-03-26T18:46:13;97195.13;;;10.32;100.00
11108;BME280;5607;48.302;14.294;2023-03-26T18:49:00;97202.25;;;10.38;100.00
11108;BME280;5607;48.302;14.294;2023-03-26T18:51:48;97209.09;;;10.39;100.00
11108;BME280;5607;48.302;14.294;2023-03-26T18:54:35;97197.97;;;10.45;100.00
11108;BME280;5607;48.302;14.294;2023-03-26T18:57:26;97197.25;;;10.28;100.00
11108;BME280;5607;48.302;14.294;2023-03-26T19:00:20;97195.94;;;10.24;100.00
11108;BME280;5607;48.302;14.294;2023-03-26T19:03:18;97182.75;;;10.26;100.00
11108;BME280;5607;48.302;14.294;2023-03-26T19:06:08;97154.53;;;10.21;100.00
11108;BME280;5607;48.302;14.294;2023-03-26T19:08:56;97168.22;;;10.31;100.00
11108;BME280;5607;48.302;14.294;2023-03-26T19:11:43;97159.91;;;10.28;100.00
11108;BME280;5607;48.302;14.294;2023-03-26T19:14:30;97161.03;;;10.33;100.00
11108;BME280;5607;48.302;14.294;2023-03-26T19:17:26;97152.63;;;10.46;100.00
11108;BME280;5607;48.302;14.294;2023-03-26T19:20:18;97170.13;;;10.37;100.00
11108;BME280;5607;48.302;14.294;2023-03-26T19:23:05;97159.72;;;10.29;100.00
11108;BME280;5607;48.302;14.294;2023-03-26T19:25:55;97159.91;;;10.28;100.00
11108;BME280;5607;48.302;14.294;2023-03-26T19:28:45;97152.41;;;10.24;100.00
11108;BME280;5607;48.302;14.294;2023-03-26T19:31:36;97151.03;;;10.37;100.00
11108;BME280;5607;48.302;14.294;2023-03-26T19:34:37;97145.25;;;10.27;100.00
11108;BME280;5607;48.302;14.294;2023-03-26T19:37:27;97130.72;;;10.32;100.00
11108;BME280;5607;48.302;14.294;2023-03-26T19:40:21;97131.44;;;10.41;100.00
11108;BME280;5607;48.302;14.294;2023-03-26T19:43:16;97126.28;;;10.56;100.00
11108;BME280;5607;48.302;14.294;2023-03-26T19:46:02;97128.22;;;10.39;100.00
11108;BME280;5607;48.302;14.294;2023-03-26T19:48:54;97115.78;;;10.41;100.00
11108;BME280;5607;48.302;14.294;2023-03-26T19:51:41;97108.72;;;10.27;100.00
11108;BME280;5607;48.302;14.294;2023-03-26T19:54:29;97103.25;;;10.36;100.00
11108;BME280;5607;48.302;14.294;2023-03-26T19:57:16;97100.41;;;10.31;100.00
11108;BME280;5607;48.302;14.294;2023-03-26T20:00:04;97091.28;;;10.27;100.00
11108;BME280;5607;48.302;14.294;2023-03-26T20:02:59;97093.91;;;10.19;100.00
11108;BME280;5607;48.302;14.294;2023-03-26T20:05:46;97084.31;;;10.19;100.00
11108;BME280;5607;48.302;14.294;2023-03-26T20:08:33;97092.38;;;10.33;100.00
11108;BME280;5607;48.302;14.294;2023-03-26T20:11:32;97088.72;;;10.42;100.00
11108;BME280;5607;48.302;14.294;2023-03-26T20:14:19;97089.59;;;10.34;100.00
11108;BME280;5607;48.302;14.294;2023-03-26T20:17:16;97085.88;;;10.29;100.00
11108;BME280;5607;48.302;14.294;2023-03-26T20:20:03;97093.88;;;10.27;100.00
11108;BME280;5607;48.302;14.294;2023-03-26T20:22:56;97087.88;;;10.27;100.00
11108;BME280;5607;48.302;14.294;2023-03-26T20:25:50;97085.13;;;10.12;100.00
11108;BME280;5607;48.302;14.294;2023-03-26T20:28:39;97095.56;;;10.12;100.00
11108;BME280;5607;48.302;14.294;2023-03-26T20:31:27;97095.63;;;10.04;100.00
11108;BME280;5607;48.302;14.294;2023-03-26T20:34:21;97096.75;;;10.09;100.00
11108;BME280;5607;48.302;14.294;2023-03-26T20:37:08;97104.91;;;10.06;100.00
11108;BME280;5607;48.302;14.294;2023-03-26T20:39:55;97102.44;;;10.13;100.00
11108;BME280;5607;48.302;14.294;2023-03-26T20:42:43;97115.88;;;9.93;100.00
11108;BME280;5607;48.302;14.294;2023-03-26T20:45:30;97112.22;;;9.80;100.00
11108;BME280;5607;48.302;14.294;2023-03-26T20:48:16;97114.94;;;9.94;100.00
11108;BME280;5607;48.302;14.294;2023-03-26T20:51:03;97121.06;;;9.70;100.00
11108;BME280;5607;48.302;14.294;2023-03-26T20:53:50;97114.91;;;9.55;100.00